aviador You're here:

CYZP Decoded Metar

SANDSPIT in BC, CANADA
Report Time2017-11-23 20:00:00
UTC Time2017-11-23 20:13:41
Flight Rules vfr VFR
Wind210° at 10 Gusting to 15 kt
W.Decomp.*RWY 12: 3.7 kt HW 9.3 kt RCW
W.Rank210° ranks 25
Current wind is above 210° avg. (5.3)
Visibility9999 m
Phenomena:N/A
Clouds:Scattered 080 Hf
Broken 150 Hf
Expected CloudBase > 1,200 ft AGL from Temp-Dew spread
Ceiling15,000 ft
Temp06°C (ISA -9)
Dew Point03°C (81% RH)
AAT0.9°C
QNH1000 hPa
Density Alt-512 ft
Elevation20 ft
Report Wrong Elevation
Raw Report
CYZP 232000Z AUTO 21010G15KT 9SM SCT080 BKN150 06/03 A2952 RMK
SLP998=

Extra information for CYZP:More info

Metar Taf Metar & Taf Last 4 Metars F.Rules Stats Wind Profile Meteogram Temp Stats Airport Information Weather charts Add Link Nearby VenuesMetar ALERT Operation Metar Decoded Social comments